sensor_id;sensor_type;location;lat;lon;timestamp;P1;durP1;ratioP1;P2;durP2;ratioP2
37047;SDS011;23227;48.780;9.210;2022-09-03T00:00:54;2.00;;;1.30;;
37047;SDS011;23227;48.780;9.210;2022-09-03T00:04:00;3.17;;;1.37;;
37047;SDS011;23227;48.780;9.210;2022-09-03T00:07:07;2.27;;;1.07;;
37047;SDS011;23227;48.780;9.210;2022-09-03T00:10:15;2.30;;;1.07;;
37047;SDS011;23227;48.780;9.210;2022-09-03T00:13:24;4.13;;;1.10;;
37047;SDS011;23227;48.780;9.210;2022-09-03T00:16:42;4.07;;;1.40;;
37047;SDS011;23227;48.780;9.210;2022-09-03T00:19:51;4.73;;;1.50;;
37047;SDS011;23227;48.780;9.210;2022-09-03T00:22:57;3.03;;;1.60;;
37047;SDS011;23227;48.780;9.210;2022-09-03T00:26:06;3.90;;;1.00;;
37047;SDS011;23227;48.780;9.210;2022-09-03T00:29:20;2.03;;;1.33;;
37047;SDS011;23227;48.780;9.210;2022-09-03T00:32:27;1.00;;;0.70;;
37047;SDS011;23227;48.780;9.210;2022-09-03T00:35:36;3.87;;;1.00;;
37047;SDS011;23227;48.780;9.210;2022-09-03T00:38:43;2.47;;;1.00;;
37047;SDS011;23227;48.780;9.210;2022-09-03T00:41:48;1.88;;;1.20;;
37047;SDS011;23227;48.780;9.210;2022-09-03T00:48:10;6.60;;;1.80;;
37047;SDS011;23227;48.780;9.210;2022-09-03T00:51:20;2.97;;;1.33;;
37047;SDS011;23227;48.780;9.210;2022-09-03T00:54:30;6.70;;;1.47;;
37047;SDS011;23227;48.780;9.210;2022-09-03T01:00:49;2.40;;;1.40;;
37047;SDS011;23227;48.780;9.210;2022-09-03T01:03:55;4.20;;;2.00;;
37047;SDS011;23227;48.780;9.210;2022-09-03T01:07:03;5.17;;;1.63;;
37047;SDS011;23227;48.780;9.210;2022-09-03T01:10:12;2.37;;;1.60;;
37047;SDS011;23227;48.780;9.210;2022-09-03T01:13:20;3.20;;;1.47;;
37047;SDS011;23227;48.780;9.210;2022-09-03T01:16:30;1.67;;;1.07;;
37047;SDS011;23227;48.780;9.210;2022-09-03T01:19:46;4.30;;;1.77;;
37047;SDS011;23227;48.780;9.210;2022-09-03T01:26:53;1.53;;;1.13;;
37047;SDS011;23227;48.780;9.210;2022-09-03T01:30:05;2.73;;;1.30;;
37047;SDS011;23227;48.780;9.210;2022-09-03T01:33:11;3.40;;;1.10;;
37047;SDS011;23227;48.780;9.210;2022-09-03T01:36:19;2.63;;;0.93;;
37047;SDS011;23227;48.780;9.210;2022-09-03T01:39:30;2.10;;;1.30;;
37047;SDS011;23227;48.780;9.210;2022-09-03T01:42:38;1.13;;;0.90;;
37047;SDS011;23227;48.780;9.210;2022-09-03T01:45:52;2.20;;;1.30;;
37047;SDS011;23227;48.780;9.210;2022-09-03T01:49:01;2.27;;;1.00;;
37047;SDS011;23227;48.780;9.210;2022-09-03T01:52:10;1.67;;;1.27;;
37047;SDS011;23227;48.780;9.210;2022-09-03T01:55:18;2.27;;;1.33;;
37047;SDS011;23227;48.780;9.210;2022-09-03T01:58:32;4.10;;;1.30;;
37047;SDS011;23227;48.780;9.210;2022-09-03T02:01:39;1.50;;;1.00;;
37047;SDS011;23227;48.780;9.210;2022-09-03T02:04:53;2.37;;;1.10;;
37047;SDS011;23227;48.780;9.210;2022-09-03T02:07:58;2.92;;;0.90;;
37047;SDS011;23227;48.780;9.210;2022-09-03T02:11:02;5.70;;;1.13;;
37047;SDS011;23227;48.780;9.210;2022-09-03T02:14:07;3.17;;;0.90;;
37047;SDS011;23227;48.780;9.210;2022-09-03T02:17:11;3.08;;;1.13;;
37047;SDS011;23227;48.780;9.210;2022-09-03T02:20:15;1.33;;;0.87;;
37047;SDS011;23227;48.780;9.210;2022-09-03T02:23:21;3.00;;;1.00;;
37047;SDS011;23227;48.780;9.210;2022-09-03T02:26:28;2.40;;;1.00;;
37047;SDS011;23227;48.780;9.210;2022-09-03T02:29:31;1.13;;;0.85;;
37047;SDS011;23227;48.780;9.210;2022-09-03T02:32:36;2.72;;;0.90;;
37047;SDS011;23227;48.780;9.210;2022-09-03T02:35:39;1.47;;;1.10;;
37047;SDS011;23227;48.780;9.210;2022-09-03T02:38:42;2.03;;;0.80;;
37047;SDS011;23227;48.780;9.210;2022-09-03T02:41:50;1.83;;;0.80;;
37047;SDS011;23227;48.780;9.210;2022-09-03T02:44:54;2.80;;;1.20;;
37047;SDS011;23227;48.780;9.210;2022-09-03T02:48:00;2.70;;;0.80;;
37047;SDS011;23227;48.780;9.210;2022-09-03T02:51:04;1.93;;;1.13;;
37047;SDS011;23227;48.780;9.210;2022-09-03T02:54:14;0.97;;;0.80;;
37047;SDS011;23227;48.780;9.210;2022-09-03T02:57:21;1.90;;;0.80;;
37047;SDS011;23227;48.780;9.210;2022-09-03T03:00:28;2.90;;;0.90;;
37047;SDS011;23227;48.780;9.210;2022-09-03T03:03:32;2.75;;;0.90;;
37047;SDS011;23227;48.780;9.210;2022-09-03T03:06:34;1.50;;;0.83;;
37047;SDS011;23227;48.780;9.210;2022-09-03T03:09:37;2.75;;;1.15;;
37047;SDS011;23227;48.780;9.210;2022-09-03T03:12:40;2.08;;;1.10;;
37047;SDS011;23227;48.780;9.210;2022-09-03T03:15:43;7.80;;;1.17;;
37047;SDS011;23227;48.780;9.210;2022-09-03T03:18:47;1.95;;;1.20;;
37047;SDS011;23227;48.780;9.210;2022-09-03T03:21:51;2.03;;;1.03;;
37047;SDS011;23227;48.780;9.210;2022-09-03T03:24:53;2.50;;;1.23;;
37047;SDS011;23227;48.780;9.210;2022-09-03T03:27:57;1.60;;;1.13;;
37047;SDS011;23227;48.780;9.210;2022-09-03T03:31:04;1.40;;;0.90;;
37047;SDS011;23227;48.780;9.210;2022-09-03T03:34:09;1.10;;;0.80;;
37047;SDS011;23227;48.780;9.210;2022-09-03T03:37:11;6.53;;;1.20;;
37047;SDS011;23227;48.780;9.210;2022-09-03T03:40:14;1.10;;;0.85;;
37047;SDS011;23227;48.780;9.210;2022-09-03T03:46:20;1.97;;;1.20;;
37047;SDS011;23227;48.780;9.210;2022-09-03T03:49:25;2.93;;;1.23;;
37047;SDS011;23227;48.780;9.210;2022-09-03T03:52:28;1.50;;;1.10;;
37047;SDS011;23227;48.780;9.210;2022-09-03T03:55:30;3.50;;;1.30;;
37047;SDS011;23227;48.780;9.210;2022-09-03T03:58:35;1.47;;;0.90;;
37047;SDS011;23227;48.780;9.210;2022-09-03T04:01:44;1.60;;;1.10;;
37047;SDS011;23227;48.780;9.210;2022-09-03T04:04:48;6.53;;;1.63;;
37047;SDS011;23227;48.780;9.210;2022-09-03T04:07:51;3.20;;;1.13;;
37047;SDS011;23227;48.780;9.210;2022-09-03T04:10:57;2.67;;;1.10;;
37047;SDS011;23227;48.780;9.210;2022-09-03T04:14:01;1.20;;;1.10;;
37047;SDS011;23227;48.780;9.210;2022-09-03T04:17:04;5.13;;;1.10;;
37047;SDS011;23227;48.780;9.210;2022-09-03T04:20:08;4.10;;;1.33;;
37047;SDS011;23227;48.780;9.210;2022-09-03T04:23:11;3.13;;;1.63;;
37047;SDS011;23227;48.780;9.210;2022-09-03T04:26:15;2.88;;;1.00;;
37047;SDS011;23227;48.780;9.210;2022-09-03T04:29:19;1.67;;;1.10;;
37047;SDS011;23227;48.780;9.210;2022-09-03T04:32:23;3.60;;;1.17;;
37047;SDS011;23227;48.780;9.210;2022-09-03T04:35:44;2.20;;;1.37;;
37047;SDS011;23227;48.780;9.210;2022-09-03T04:38:48;1.50;;;1.10;;
37047;SDS011;23227;48.780;9.210;2022-09-03T04:41:51;1.80;;;1.00;;
37047;SDS011;23227;48.780;9.210;2022-09-03T04:44:54;1.20;;;1.10;;
37047;SDS011;23227;48.780;9.210;2022-09-03T04:47:58;3.13;;;1.00;;
37047;SDS011;23227;48.780;9.210;2022-09-03T04:54:06;1.43;;;1.13;;
37047;SDS011;23227;48.780;9.210;2022-09-03T04:57:10;3.07;;;1.30;;
37047;SDS011;23227;48.780;9.210;2022-09-03T05:00:13;7.78;;;1.60;;
37047;SDS011;23227;48.780;9.210;2022-09-03T05:03:19;1.40;;;1.13;;
37047;SDS011;23227;48.780;9.210;2022-09-03T05:06:23;2.40;;;1.80;;
37047;SDS011;23227;48.780;9.210;2022-09-03T05:09:27;3.83;;;1.10;;
37047;SDS011;23227;48.780;9.210;2022-09-03T05:12:29;6.38;;;1.50;;
37047;SDS011;23227;48.780;9.210;2022-09-03T05:15:33;1.93;;;1.30;;
37047;SDS011;23227;48.780;9.210;2022-09-03T05:18:36;2.63;;;1.27;;
37047;SDS011;23227;48.780;9.210;2022-09-03T05:21:43;1.63;;;1.40;;
37047;SDS011;23227;48.780;9.210;2022-09-03T05:24:46;3.03;;;1.20;;
37047;SDS011;23227;48.780;9.210;2022-09-03T05:27:48;2.20;;;1.23;;
37047;SDS011;23227;48.780;9.210;2022-09-03T05:30:57;2.53;;;1.40;;
37047;SDS011;23227;48.780;9.210;2022-09-03T05:34:01;2.27;;;1.20;;
37047;SDS011;23227;48.780;9.210;2022-09-03T05:37:06;2.10;;;1.30;;
37047;SDS011;23227;48.780;9.210;2022-09-03T05:40:09;8.50;;;1.20;;
37047;SDS011;23227;48.780;9.210;2022-09-03T05:43:13;2.50;;;1.43;;
37047;SDS011;23227;48.780;9.210;2022-09-03T05:46:17;2.10;;;1.20;;
37047;SDS011;23227;48.780;9.210;2022-09-03T05:49:20;2.42;;;1.20;;
37047;SDS011;23227;48.780;9.210;2022-09-03T05:52:24;3.90;;;1.25;;
37047;SDS011;23227;48.780;9.210;2022-09-03T05:55:27;3.93;;;1.23;;
37047;SDS011;23227;48.780;9.210;2022-09-03T05:58:30;2.60;;;1.08;;
37047;SDS011;23227;48.780;9.210;2022-09-03T06:04:36;3.67;;;1.50;;
37047;SDS011;23227;48.780;9.210;2022-09-03T06:07:40;1.40;;;1.10;;
37047;SDS011;23227;48.780;9.210;2022-09-03T06:10:43;3.50;;;1.50;;
37047;SDS011;23227;48.780;9.210;2022-09-03T06:13:45;2.00;;;1.40;;
37047;SDS011;23227;48.780;9.210;2022-09-03T06:16:48;2.00;;;1.27;;
37047;SDS011;23227;48.780;9.210;2022-09-03T06:19:53;2.17;;;1.20;;
37047;SDS011;23227;48.780;9.210;2022-09-03T06:22:57;5.03;;;1.30;;
37047;SDS011;23227;48.780;9.210;2022-09-03T06:26:01;2.97;;;1.30;;
37047;SDS011;23227;48.780;9.210;2022-09-03T06:29:05;2.73;;;1.10;;
37047;SDS011;23227;48.780;9.210;2022-09-03T06:32:08;3.60;;;1.73;;
37047;SDS011;23227;48.780;9.210;2022-09-03T06:35:11;1.65;;;1.35;;
37047;SDS011;23227;48.780;9.210;2022-09-03T06:38:15;2.95;;;1.30;;
37047;SDS011;23227;48.780;9.210;2022-09-03T06:41:22;3.67;;;1.60;;
37047;SDS011;23227;48.780;9.210;2022-09-03T06:44:26;6.37;;;1.83;;
37047;SDS011;23227;48.780;9.210;2022-09-03T06:47:28;2.50;;;1.15;;
37047;SDS011;23227;48.780;9.210;2022-09-03T06:53:36;5.18;;;1.65;;
37047;SDS011;23227;48.780;9.210;2022-09-03T06:56:40;3.20;;;1.57;;
37047;SDS011;23227;48.780;9.210;2022-09-03T06:59:43;1.52;;;1.23;;
37047;SDS011;23227;48.780;9.210;2022-09-03T07:02:46;3.13;;;1.33;;
37047;SDS011;23227;48.780;9.210;2022-09-03T07:05:48;3.30;;;1.40;;
37047;SDS011;23227;48.780;9.210;2022-09-03T07:08:53;4.00;;;1.60;;
37047;SDS011;23227;48.780;9.210;2022-09-03T07:11:58;3.57;;;1.33;;
37047;SDS011;23227;48.780;9.210;2022-09-03T07:15:01;5.67;;;3.90;;
37047;SDS011;23227;48.780;9.210;2022-09-03T07:18:04;5.10;;;1.50;;
37047;SDS011;23227;48.780;9.210;2022-09-03T07:21:08;3.70;;;1.60;;
37047;SDS011;23227;48.780;9.210;2022-09-03T07:24:12;3.43;;;1.47;;
37047;SDS011;23227;48.780;9.210;2022-09-03T07:27:15;3.27;;;1.53;;
37047;SDS011;23227;48.780;9.210;2022-09-03T07:30:18;3.17;;;1.70;;
37047;SDS011;23227;48.780;9.210;2022-09-03T07:33:20;1.85;;;1.50;;
37047;SDS011;23227;48.780;9.210;2022-09-03T07:36:23;6.22;;;1.52;;
37047;SDS011;23227;48.780;9.210;2022-09-03T07:39:30;4.40;;;1.50;;
37047;SDS011;23227;48.780;9.210;2022-09-03T07:42:33;1.70;;;1.30;;
37047;SDS011;23227;48.780;9.210;2022-09-03T07:45:38;3.40;;;1.90;;
37047;SDS011;23227;48.780;9.210;2022-09-03T07:48:42;4.07;;;1.50;;
37047;SDS011;23227;48.780;9.210;2022-09-03T07:51:49;4.53;;;1.80;;
37047;SDS011;23227;48.780;9.210;2022-09-03T07:54:56;2.93;;;1.50;;
37047;SDS011;23227;48.780;9.210;2022-09-03T07:57:59;4.17;;;1.53;;
37047;SDS011;23227;48.780;9.210;2022-09-03T08:01:03;3.60;;;2.00;;
37047;SDS011;23227;48.780;9.210;2022-09-03T08:04:11;2.17;;;1.67;;
37047;SDS011;23227;48.780;9.210;2022-09-03T08:10:18;4.60;;;1.60;;
37047;SDS011;23227;48.780;9.210;2022-09-03T08:13:21;2.47;;;1.77;;
37047;SDS011;23227;48.780;9.210;2022-09-03T08:16:27;4.70;;;1.80;;
37047;SDS011;23227;48.780;9.210;2022-09-03T08:19:31;3.17;;;1.87;;
37047;SDS011;23227;48.780;9.210;2022-09-03T08:22:34;3.17;;;1.98;;
37047;SDS011;23227;48.780;9.210;2022-09-03T08:25:39;4.77;;;1.80;;
37047;SDS011;23227;48.780;9.210;2022-09-03T08:28:41;3.03;;;1.83;;
37047;SDS011;23227;48.780;9.210;2022-09-03T08:31:44;3.37;;;1.70;;
37047;SDS011;23227;48.780;9.210;2022-09-03T08:34:47;4.80;;;2.08;;
37047;SDS011;23227;48.780;9.210;2022-09-03T08:37:50;3.83;;;1.80;;
37047;SDS011;23227;48.780;9.210;2022-09-03T08:41:03;5.17;;;1.80;;
37047;SDS011;23227;48.780;9.210;2022-09-03T08:44:08;4.07;;;2.07;;
37047;SDS011;23227;48.780;9.210;2022-09-03T08:47:19;3.87;;;1.97;;
37047;SDS011;23227;48.780;9.210;2022-09-03T08:50:24;5.82;;;2.25;;
37047;SDS011;23227;48.780;9.210;2022-09-03T08:53:29;5.97;;;2.20;;
37047;SDS011;23227;48.780;9.210;2022-09-03T08:56:39;4.32;;;2.22;;
37047;SDS011;23227;48.780;9.210;2022-09-03T08:59:42;3.08;;;1.95;;
37047;SDS011;23227;48.780;9.210;2022-09-03T09:02:52;2.85;;;1.67;;
37047;SDS011;23227;48.780;9.210;2022-09-03T09:06:04;3.15;;;1.80;;
37047;SDS011;23227;48.780;9.210;2022-09-03T09:09:13;4.60;;;1.85;;
37047;SDS011;23227;48.780;9.210;2022-09-03T09:12:28;3.27;;;2.00;;
37047;SDS011;23227;48.780;9.210;2022-09-03T09:15:47;4.70;;;1.98;;
37047;SDS011;23227;48.780;9.210;2022-09-03T09:18:56;2.97;;;1.73;;
37047;SDS011;23227;48.780;9.210;2022-09-03T09:22:12;2.73;;;1.83;;
37047;SDS011;23227;48.780;9.210;2022-09-03T09:25:19;2.87;;;1.60;;
37047;SDS011;23227;48.780;9.210;2022-09-03T09:28:28;3.57;;;1.70;;
37047;SDS011;23227;48.780;9.210;2022-09-03T09:31:32;4.47;;;1.87;;
37047;SDS011;23227;48.780;9.210;2022-09-03T09:34:35;2.37;;;1.70;;
37047;SDS011;23227;48.780;9.210;2022-09-03T09:37:49;2.30;;;1.87;;
37047;SDS011;23227;48.780;9.210;2022-09-03T09:40:52;5.05;;;1.88;;
37047;SDS011;23227;48.780;9.210;2022-09-03T09:44:02;5.47;;;2.00;;
37047;SDS011;23227;48.780;9.210;2022-09-03T09:47:07;4.13;;;1.93;;
37047;SDS011;23227;48.780;9.210;2022-09-03T09:50:16;2.97;;;2.40;;
37047;SDS011;23227;48.780;9.210;2022-09-03T09:53:26;3.77;;;2.00;;
37047;SDS011;23227;48.780;9.210;2022-09-03T09:56:30;2.23;;;1.87;;
37047;SDS011;23227;48.780;9.210;2022-09-03T10:02:38;4.77;;;1.73;;
37047;SDS011;23227;48.780;9.210;2022-09-03T10:05:42;4.00;;;2.10;;
37047;SDS011;23227;48.780;9.210;2022-09-03T10:09:06;3.93;;;1.93;;
37047;SDS011;23227;48.780;9.210;2022-09-03T10:12:12;2.63;;;1.98;;
37047;SDS011;23227;48.780;9.210;2022-09-03T10:15:22;9.15;;;2.47;;
37047;SDS011;23227;48.780;9.210;2022-09-03T10:18:29;11.32;;;2.60;;
37047;SDS011;23227;48.780;9.210;2022-09-03T10:21:39;8.18;;;2.50;;
37047;SDS011;23227;48.780;9.210;2022-09-03T10:24:46;3.63;;;2.25;;
37047;SDS011;23227;48.780;9.210;2022-09-03T10:27:52;7.15;;;2.80;;
37047;SDS011;23227;48.780;9.210;2022-09-03T10:31:06;5.23;;;2.47;;
37047;SDS011;23227;48.780;9.210;2022-09-03T10:34:17;4.53;;;2.27;;
37047;SDS011;23227;48.780;9.210;2022-09-03T10:37:26;3.57;;;1.67;;
37047;SDS011;23227;48.780;9.210;2022-09-03T10:40:34;4.03;;;2.15;;
37047;SDS011;23227;48.780;9.210;2022-09-03T10:43:44;3.90;;;2.43;;
37047;SDS011;23227;48.780;9.210;2022-09-03T10:46:58;3.73;;;1.97;;
37047;SDS011;23227;48.780;9.210;2022-09-03T10:50:07;2.83;;;2.30;;
37047;SDS011;23227;48.780;9.210;2022-09-03T10:53:16;3.67;;;2.10;;
37047;SDS011;23227;48.780;9.210;2022-09-03T10:56:24;2.50;;;1.83;;
37047;SDS011;23227;48.780;9.210;2022-09-03T10:59:34;3.47;;;1.70;;
37047;SDS011;23227;48.780;9.210;2022-09-03T11:02:51;5.05;;;2.10;;
37047;SDS011;23227;48.780;9.210;2022-09-03T11:06:05;3.03;;;2.10;;
37047;SDS011;23227;48.780;9.210;2022-09-03T11:09:12;1.98;;;1.75;;
37047;SDS011;23227;48.780;9.210;2022-09-03T11:12:20;3.55;;;2.28;;
37047;SDS011;23227;48.780;9.210;2022-09-03T11:15:27;5.45;;;2.50;;
37047;SDS011;23227;48.780;9.210;2022-09-03T11:18:35;4.18;;;2.10;;
37047;SDS011;23227;48.780;9.210;2022-09-03T11:21:41;4.43;;;2.30;;
37047;SDS011;23227;48.780;9.210;2022-09-03T11:24:45;23.25;;;4.05;;
37047;SDS011;23227;48.780;9.210;2022-09-03T11:27:55;6.07;;;2.63;;
37047;SDS011;23227;48.780;9.210;2022-09-03T11:31:16;7.18;;;1.80;;
37047;SDS011;23227;48.780;9.210;2022-09-03T11:34:31;5.65;;;2.40;;
37047;SDS011;23227;48.780;9.210;2022-09-03T11:37:48;3.15;;;2.08;;
37047;SDS011;23227;48.780;9.210;2022-09-03T11:40:57;4.47;;;2.42;;
37047;SDS011;23227;48.780;9.210;2022-09-03T11:44:10;4.15;;;1.90;;
37047;SDS011;23227;48.780;9.210;2022-09-03T11:47:20;5.90;;;2.47;;
37047;SDS011;23227;48.780;9.210;2022-09-03T11:50:26;5.40;;;1.98;;
37047;SDS011;23227;48.780;9.210;2022-09-03T11:53:34;2.53;;;2.20;;
37047;SDS011;23227;48.780;9.210;2022-09-03T11:56:38;6.68;;;3.58;;
37047;SDS011;23227;48.780;9.210;2022-09-03T11:59:42;6.15;;;2.67;;
37047;SDS011;23227;48.780;9.210;2022-09-03T12:02:46;3.42;;;2.00;;
37047;SDS011;23227;48.780;9.210;2022-09-03T12:06:01;3.33;;;1.92;;
37047;SDS011;23227;48.780;9.210;2022-09-03T12:09:15;3.42;;;2.28;;
37047;SDS011;23227;48.780;9.210;2022-09-03T12:12:38;4.50;;;2.55;;
37047;SDS011;23227;48.780;9.210;2022-09-03T12:16:03;4.47;;;2.30;;
37047;SDS011;23227;48.780;9.210;2022-09-03T12:19:25;4.70;;;2.00;;
37047;SDS011;23227;48.780;9.210;2022-09-03T12:22:34;5.43;;;1.90;;
37047;SDS011;23227;48.780;9.210;2022-09-03T12:25:41;5.53;;;2.70;;
37047;SDS011;23227;48.780;9.210;2022-09-03T12:28:46;4.70;;;2.00;;
37047;SDS011;23227;48.780;9.210;2022-09-03T12:31:52;8.17;;;2.87;;
37047;SDS011;23227;48.780;9.210;2022-09-03T12:34:56;3.93;;;2.37;;
37047;SDS011;23227;48.780;9.210;2022-09-03T12:38:01;4.97;;;1.90;;
37047;SDS011;23227;48.780;9.210;2022-09-03T12:41:18;2.37;;;1.20;;
37047;SDS011;23227;48.780;9.210;2022-09-03T12:44:28;2.27;;;1.37;;
37047;SDS011;23227;48.780;9.210;2022-09-03T12:47:37;3.03;;;1.50;;
37047;SDS011;23227;48.780;9.210;2022-09-03T12:50:41;2.63;;;1.87;;
37047;SDS011;23227;48.780;9.210;2022-09-03T12:53:57;2.37;;;1.30;;
37047;SDS011;23227;48.780;9.210;2022-09-03T12:57:01;2.47;;;1.57;;
37047;SDS011;23227;48.780;9.210;2022-09-03T13:00:05;5.17;;;1.63;;
37047;SDS011;23227;48.780;9.210;2022-09-03T13:03:10;8.53;;;2.13;;
37047;SDS011;23227;48.780;9.210;2022-09-03T13:06:15;3.70;;;1.90;;
37047;SDS011;23227;48.780;9.210;2022-09-03T13:09:21;5.63;;;1.93;;
37047;SDS011;23227;48.780;9.210;2022-09-03T13:12:27;2.63;;;1.83;;
37047;SDS011;23227;48.780;9.210;2022-09-03T13:15:33;6.37;;;2.20;;
37047;SDS011;23227;48.780;9.210;2022-09-03T13:18:37;2.70;;;1.63;;
37047;SDS011;23227;48.780;9.210;2022-09-03T13:21:44;3.10;;;1.80;;
37047;SDS011;23227;48.780;9.210;2022-09-03T13:25:00;9.13;;;2.10;;
37047;SDS011;23227;48.780;9.210;2022-09-03T13:28:06;5.93;;;1.70;;
37047;SDS011;23227;48.780;9.210;2022-09-03T13:31:21;3.57;;;1.70;;
37047;SDS011;23227;48.780;9.210;2022-09-03T13:34:29;2.47;;;1.50;;
37047;SDS011;23227;48.780;9.210;2022-09-03T13:37:34;3.27;;;1.80;;
37047;SDS011;23227;48.780;9.210;2022-09-03T13:40:41;2.07;;;1.30;;
37047;SDS011;23227;48.780;9.210;2022-09-03T13:43:50;2.60;;;1.00;;
37047;SDS011;23227;48.780;9.210;2022-09-03T13:46:57;2.90;;;1.47;;
37047;SDS011;23227;48.780;9.210;2022-09-03T13:50:03;2.20;;;1.07;;
37047;SDS011;23227;48.780;9.210;2022-09-03T13:53:24;2.33;;;1.00;;
37047;SDS011;23227;48.780;9.210;2022-09-03T13:56:43;1.83;;;0.68;;
37047;SDS011;23227;48.780;9.210;2022-09-03T13:59:53;5.05;;;1.02;;
37047;SDS011;23227;48.780;9.210;2022-09-03T14:03:03;3.45;;;0.93;;
37047;SDS011;23227;48.780;9.210;2022-09-03T14:06:10;2.20;;;0.80;;
37047;SDS011;23227;48.780;9.210;2022-09-03T14:09:22;8.43;;;1.00;;
37047;SDS011;23227;48.780;9.210;2022-09-03T14:12:38;4.40;;;1.05;;
37047;SDS011;23227;48.780;9.210;2022-09-03T14:15:48;1.70;;;0.73;;
37047;SDS011;23227;48.780;9.210;2022-09-03T14:18:54;1.02;;;0.90;;
37047;SDS011;23227;48.780;9.210;2022-09-03T14:22:00;4.20;;;1.02;;
37047;SDS011;23227;48.780;9.210;2022-09-03T14:25:16;3.35;;;0.90;;
37047;SDS011;23227;48.780;9.210;2022-09-03T14:28:26;1.73;;;0.60;;
37047;SDS011;23227;48.780;9.210;2022-09-03T14:31:43;1.52;;;0.70;;
37047;SDS011;23227;48.780;9.210;2022-09-03T14:34:56;2.13;;;0.88;;
37047;SDS011;23227;48.780;9.210;2022-09-03T14:38:25;2.63;;;0.80;;
37047;SDS011;23227;48.780;9.210;2022-09-03T14:45:17;1.98;;;0.70;;
37047;SDS011;23227;48.780;9.210;2022-09-03T14:48:46;2.05;;;0.93;;
37047;SDS011;23227;48.780;9.210;2022-09-03T14:51:59;1.48;;;0.68;;
37047;SDS011;23227;48.780;9.210;2022-09-03T14:55:13;2.75;;;0.80;;
37047;SDS011;23227;48.780;9.210;2022-09-03T14:58:26;1.10;;;0.70;;
37047;SDS011;23227;48.780;9.210;2022-09-03T15:01:37;2.75;;;0.77;;
37047;SDS011;23227;48.780;9.210;2022-09-03T15:04:45;1.38;;;0.63;;
37047;SDS011;23227;48.780;9.210;2022-09-03T15:07:54;1.17;;;0.60;;
37047;SDS011;23227;48.780;9.210;2022-09-03T15:10:58;2.55;;;0.88;;
37047;SDS011;23227;48.780;9.210;2022-09-03T15:14:03;1.00;;;0.80;;
37047;SDS011;23227;48.780;9.210;2022-09-03T15:17:23;1.52;;;0.85;;
37047;SDS011;23227;48.780;9.210;2022-09-03T15:20:35;1.00;;;0.73;;
37047;SDS011;23227;48.780;9.210;2022-09-03T15:23:50;1.63;;;0.90;;
37047;SDS011;23227;48.780;9.210;2022-09-03T15:27:03;1.48;;;0.60;;
37047;SDS011;23227;48.780;9.210;2022-09-03T15:30:14;0.90;;;0.60;;
37047;SDS011;23227;48.780;9.210;2022-09-03T15:33:22;1.17;;;0.85;;
37047;SDS011;23227;48.780;9.210;2022-09-03T15:36:33;1.67;;;0.75;;
37047;SDS011;23227;48.780;9.210;2022-09-03T15:39:37;1.30;;;0.73;;
37047;SDS011;23227;48.780;9.210;2022-09-03T15:42:43;1.05;;;0.85;;
37047;SDS011;23227;48.780;9.210;2022-09-03T15:45:51;1.40;;;0.65;;
37047;SDS011;23227;48.780;9.210;2022-09-03T15:48:59;1.27;;;0.80;;
37047;SDS011;23227;48.780;9.210;2022-09-03T15:52:07;2.25;;;1.00;;
37047;SDS011;23227;48.780;9.210;2022-09-03T15:55:12;2.58;;;0.70;;
37047;SDS011;23227;48.780;9.210;2022-09-03T15:58:19;2.00;;;1.27;;
37047;SDS011;23227;48.780;9.210;2022-09-03T16:01:27;3.22;;;1.40;;
37047;SDS011;23227;48.780;9.210;2022-09-03T16:04:40;4.20;;;1.60;;
37047;SDS011;23227;48.780;9.210;2022-09-03T16:07:57;5.22;;;1.20;;
37047;SDS011;23227;48.780;9.210;2022-09-03T16:11:07;5.18;;;1.25;;
37047;SDS011;23227;48.780;9.210;2022-09-03T16:14:14;2.72;;;1.17;;
37047;SDS011;23227;48.780;9.210;2022-09-03T16:17:24;1.08;;;0.93;;
37047;SDS011;23227;48.780;9.210;2022-09-03T16:20:33;1.52;;;1.08;;
37047;SDS011;23227;48.780;9.210;2022-09-03T16:23:39;1.55;;;1.13;;
37047;SDS011;23227;48.780;9.210;2022-09-03T16:26:47;1.35;;;1.00;;
37047;SDS011;23227;48.780;9.210;2022-09-03T16:29:56;2.30;;;0.90;;
37047;SDS011;23227;48.780;9.210;2022-09-03T16:33:01;1.42;;;1.13;;
37047;SDS011;23227;48.780;9.210;2022-09-03T16:36:17;2.40;;;1.33;;
37047;SDS011;23227;48.780;9.210;2022-09-03T16:39:34;2.17;;;1.33;;
37047;SDS011;23227;48.780;9.210;2022-09-03T16:42:43;4.30;;;1.60;;
37047;SDS011;23227;48.780;9.210;2022-09-03T16:45:50;2.10;;;1.30;;
37047;SDS011;23227;48.780;9.210;2022-09-03T16:49:05;2.63;;;1.30;;
37047;SDS011;23227;48.780;9.210;2022-09-03T16:52:15;2.00;;;1.50;;
37047;SDS011;23227;48.780;9.210;2022-09-03T16:55:49;3.75;;;1.30;;
37047;SDS011;23227;48.780;9.210;2022-09-03T16:59:00;3.22;;;1.45;;
37047;SDS011;23227;48.780;9.210;2022-09-03T17:02:16;4.63;;;1.65;;
37047;SDS011;23227;48.780;9.210;2022-09-03T17:09:06;3.83;;;2.40;;
37047;SDS011;23227;48.780;9.210;2022-09-03T17:12:16;3.00;;;1.70;;
37047;SDS011;23227;48.780;9.210;2022-09-03T17:15:29;2.00;;;1.30;;
37047;SDS011;23227;48.780;9.210;2022-09-03T17:18:39;1.92;;;1.23;;
37047;SDS011;23227;48.780;9.210;2022-09-03T17:21:47;2.00;;;1.40;;
37047;SDS011;23227;48.780;9.210;2022-09-03T17:24:52;2.80;;;1.60;;
37047;SDS011;23227;48.780;9.210;2022-09-03T17:28:11;3.10;;;1.33;;
37047;SDS011;23227;48.780;9.210;2022-09-03T17:31:26;2.42;;;1.17;;
37047;SDS011;23227;48.780;9.210;2022-09-03T17:34:40;2.83;;;1.57;;
37047;SDS011;23227;48.780;9.210;2022-09-03T17:37:55;1.60;;;1.30;;
37047;SDS011;23227;48.780;9.210;2022-09-03T17:41:06;2.93;;;1.20;;
37047;SDS011;23227;48.780;9.210;2022-09-03T17:44:18;2.80;;;1.30;;
37047;SDS011;23227;48.780;9.210;2022-09-03T17:47:38;3.87;;;1.40;;
37047;SDS011;23227;48.780;9.210;2022-09-03T17:50:50;6.17;;;2.53;;
37047;SDS011;23227;48.780;9.210;2022-09-03T17:53:56;2.80;;;1.70;;
37047;SDS011;23227;48.780;9.210;2022-09-03T17:57:11;2.00;;;1.30;;
37047;SDS011;23227;48.780;9.210;2022-09-03T18:00:21;7.87;;;2.80;;
37047;SDS011;23227;48.780;9.210;2022-09-03T18:03:26;4.60;;;2.57;;
37047;SDS011;23227;48.780;9.210;2022-09-03T18:06:34;4.57;;;2.30;;
37047;SDS011;23227;48.780;9.210;2022-09-03T18:09:46;6.67;;;2.37;;
37047;SDS011;23227;48.780;9.210;2022-09-03T18:12:58;11.57;;;4.27;;
37047;SDS011;23227;48.780;9.210;2022-09-03T18:16:10;7.23;;;4.43;;
37047;SDS011;23227;48.780;9.210;2022-09-03T18:19:20;9.07;;;4.10;;
37047;SDS011;23227;48.780;9.210;2022-09-03T18:22:33;9.93;;;3.93;;
37047;SDS011;23227;48.780;9.210;2022-09-03T18:25:56;5.43;;;2.80;;
37047;SDS011;23227;48.780;9.210;2022-09-03T18:29:22;5.57;;;3.60;;
37047;SDS011;23227;48.780;9.210;2022-09-03T18:32:54;6.70;;;4.70;;
37047;SDS011;23227;48.780;9.210;2022-09-03T18:36:15;9.03;;;4.33;;
37047;SDS011;23227;48.780;9.210;2022-09-03T18:39:36;4.53;;;3.23;;
37047;SDS011;23227;48.780;9.210;2022-09-03T18:42:58;4.70;;;2.90;;
37047;SDS011;23227;48.780;9.210;2022-09-03T18:46:27;7.93;;;3.57;;
37047;SDS011;23227;48.780;9.210;2022-09-03T18:50:16;3.57;;;2.27;;
37047;SDS011;23227;48.780;9.210;2022-09-03T18:57:04;3.40;;;1.60;;
37047;SDS011;23227;48.780;9.210;2022-09-03T19:00:28;3.47;;;2.40;;
37047;SDS011;23227;48.780;9.210;2022-09-03T19:03:54;3.57;;;1.73;;
37047;SDS011;23227;48.780;9.210;2022-09-03T19:07:22;7.27;;;1.80;;
37047;SDS011;23227;48.780;9.210;2022-09-03T19:10:47;3.63;;;2.03;;
37047;SDS011;23227;48.780;9.210;2022-09-03T19:14:13;2.63;;;1.83;;
37047;SDS011;23227;48.780;9.210;2022-09-03T19:17:46;3.47;;;2.10;;
37047;SDS011;23227;48.780;9.210;2022-09-03T19:21:21;9.50;;;2.83;;
37047;SDS011;23227;48.780;9.210;2022-09-03T19:24:53;3.97;;;1.93;;
37047;SDS011;23227;48.780;9.210;2022-09-03T19:28:17;6.43;;;2.30;;
37047;SDS011;23227;48.780;9.210;2022-09-03T19:31:40;2.90;;;2.20;;
37047;SDS011;23227;48.780;9.210;2022-09-03T19:35:06;3.67;;;2.23;;
37047;SDS011;23227;48.780;9.210;2022-09-03T19:38:39;4.40;;;2.10;;